sensor_id;sensor_type;location;lat;lon;timestamp;pressure;altitude;pressure_sealevel;temperature;humidity
68822;BME280;55834;50.870;4.606;2022-09-30T00:01:31;100136.78;;;7.85;53.00
68822;BME280;55834;50.870;4.606;2022-09-30T00:03:58;100134.97;;;7.87;53.27
68822;BME280;55834;50.870;4.606;2022-09-30T00:06:24;100141.97;;;7.88;52.53
68822;BME280;55834;50.870;4.606;2022-09-30T00:08:50;100148.31;;;7.79;51.98
68822;BME280;55834;50.870;4.606;2022-09-30T00:11:21;100143.50;;;7.62;52.03
68822;BME280;55834;50.870;4.606;2022-09-30T00:13:49;100142.75;;;7.57;53.17
68822;BME280;55834;50.870;4.606;2022-09-30T00:16:16;100144.38;;;7.63;53.71
68822;BME280;55834;50.870;4.606;2022-09-30T00:18:43;100142.56;;;7.65;53.08
68822;BME280;55834;50.870;4.606;2022-09-30T00:21:10;100142.50;;;7.66;52.89
68822;BME280;55834;50.870;4.606;2022-09-30T00:23:37;100139.13;;;7.61;51.71
68822;BME280;55834;50.870;4.606;2022-09-30T00:26:06;100142.22;;;7.44;52.27
68822;BME280;55834;50.870;4.606;2022-09-30T00:28:32;100139.53;;;7.46;53.59
68822;BME280;55834;50.870;4.606;2022-09-30T00:31:04;100135.28;;;7.40;53.19
68822;BME280;55834;50.870;4.606;2022-09-30T00:33:30;100143.31;;;7.34;53.99
68822;BME280;55834;50.870;4.606;2022-09-30T00:35:56;100146.88;;;7.32;53.41
68822;BME280;55834;50.870;4.606;2022-09-30T00:38:21;100148.66;;;7.31;54.13
68822;BME280;55834;50.870;4.606;2022-09-30T00:40:47;100142.31;;;7.40;54.11
68822;BME280;55834;50.870;4.606;2022-09-30T00:43:18;100145.63;;;7.48;54.06
68822;BME280;55834;50.870;4.606;2022-09-30T00:45:55;100142.91;;;7.51;53.95
68822;BME280;55834;50.870;4.606;2022-09-30T00:48:34;100138.56;;;7.50;53.11
68822;BME280;55834;50.870;4.606;2022-09-30T00:51:02;100148.28;;;7.46;52.87
68822;BME280;55834;50.870;4.606;2022-09-30T00:53:29;100156.53;;;7.31;52.87
68822;BME280;55834;50.870;4.606;2022-09-30T00:56:05;100159.22;;;7.28;53.20
68822;BME280;55834;50.870;4.606;2022-09-30T00:58:35;100160.09;;;7.29;52.99
68822;BME280;55834;50.870;4.606;2022-09-30T01:01:03;100159.19;;;7.30;53.01
68822;BME280;55834;50.870;4.606;2022-09-30T01:04:01;100161.81;;;7.30;53.30
68822;BME280;55834;50.870;4.606;2022-09-30T01:06:27;100160.16;;;7.27;52.98
68822;BME280;55834;50.870;4.606;2022-09-30T01:08:53;100161.06;;;7.24;52.83
68822;BME280;55834;50.870;4.606;2022-09-30T01:11:19;100159.31;;;7.25;52.71
68822;BME280;55834;50.870;4.606;2022-09-30T01:13:47;100152.38;;;7.21;52.42
68822;BME280;55834;50.870;4.606;2022-09-30T01:16:44;100153.53;;;7.09;51.96
68822;BME280;55834;50.870;4.606;2022-09-30T01:25:06;100159.00;;;7.01;52.87
68822;BME280;55834;50.870;4.606;2022-09-30T01:30:20;100158.06;;;7.03;52.96
68822;BME280;55834;50.870;4.606;2022-09-30T01:33:14;100155.91;;;6.83;52.40
68822;BME280;55834;50.870;4.606;2022-09-30T01:38:47;100159.78;;;6.66;52.99
68822;BME280;55834;50.870;4.606;2022-09-30T01:41:26;100166.59;;;6.75;53.53
68822;BME280;55834;50.870;4.606;2022-09-30T01:44:07;100166.44;;;6.81;53.70
68822;BME280;55834;50.870;4.606;2022-09-30T01:46:42;100160.28;;;6.84;52.67
68822;BME280;55834;50.870;4.606;2022-09-30T01:49:31;100156.03;;;6.76;52.15
68822;BME280;55834;50.870;4.606;2022-09-30T01:52:07;100159.31;;;6.44;52.46
68822;BME280;55834;50.870;4.606;2022-09-30T01:54:59;100159.16;;;6.52;54.51
68822;BME280;55834;50.870;4.606;2022-09-30T01:57:30;100152.78;;;6.65;54.72
68822;BME280;55834;50.870;4.606;2022-09-30T02:00:08;100150.94;;;6.70;53.78
68822;BME280;55834;50.870;4.606;2022-09-30T02:02:55;100155.25;;;6.71;53.59
68822;BME280;55834;50.870;4.606;2022-09-30T02:05:53;100152.09;;;6.55;53.26
68822;BME280;55834;50.870;4.606;2022-09-30T02:08:37;100149.41;;;6.57;53.73
68822;BME280;55834;50.870;4.606;2022-09-30T02:11:16;100154.66;;;6.59;53.74
68822;BME280;55834;50.870;4.606;2022-09-30T02:16:11;100149.81;;;6.39;53.29
68822;BME280;55834;50.870;4.606;2022-09-30T02:18:41;100165.59;;;6.37;53.47
68822;BME280;55834;50.870;4.606;2022-09-30T02:21:11;100167.44;;;6.30;54.07
68822;BME280;55834;50.870;4.606;2022-09-30T02:23:41;100172.88;;;6.21;55.30
68822;BME280;55834;50.870;4.606;2022-09-30T02:26:19;100176.09;;;6.36;55.04
68822;BME280;55834;50.870;4.606;2022-09-30T02:28:54;100171.13;;;6.22;53.79
68822;BME280;55834;50.870;4.606;2022-09-30T02:31:22;100167.03;;;6.08;54.20
68822;BME280;55834;50.870;4.606;2022-09-30T02:34:25;100165.13;;;6.15;54.57
68822;BME280;55834;50.870;4.606;2022-09-30T02:37:04;100163.31;;;6.20;54.00
68822;BME280;55834;50.870;4.606;2022-09-30T02:39:42;100156.50;;;6.10;54.38
68822;BME280;55834;50.870;4.606;2022-09-30T02:42:13;100154.47;;;6.26;55.34
68822;BME280;55834;50.870;4.606;2022-09-30T02:44:46;100151.66;;;6.33;54.57
68822;BME280;55834;50.870;4.606;2022-09-30T02:50:03;100159.56;;;6.32;53.76
68822;BME280;55834;50.870;4.606;2022-09-30T02:52:54;100163.00;;;6.36;53.96
68822;BME280;55834;50.870;4.606;2022-09-30T02:55:39;100165.69;;;6.31;53.42
68822;BME280;55834;50.870;4.606;2022-09-30T02:58:17;100165.63;;;6.36;53.70
68822;BME280;55834;50.870;4.606;2022-09-30T03:00:44;100166.63;;;6.28;52.38
68822;BME280;55834;50.870;4.606;2022-09-30T03:03:20;100167.88;;;6.09;53.34
68822;BME280;55834;50.870;4.606;2022-09-30T03:05:48;100170.41;;;6.14;54.02
68822;BME280;55834;50.870;4.606;2022-09-30T03:08:14;100163.31;;;6.19;53.71
68822;BME280;55834;50.870;4.606;2022-09-30T03:10:40;100169.41;;;6.19;53.83
68822;BME280;55834;50.870;4.606;2022-09-30T03:13:16;100161.59;;;6.18;53.30
68822;BME280;55834;50.870;4.606;2022-09-30T03:15:46;100166.06;;;6.11;53.82
68822;BME280;55834;50.870;4.606;2022-09-30T03:31:32;100181.00;;;6.07;52.39
68822;BME280;55834;50.870;4.606;2022-09-30T03:36:56;100183.69;;;6.04;53.16
68822;BME280;55834;50.870;4.606;2022-09-30T03:39:35;100188.25;;;5.93;52.24
68822;BME280;55834;50.870;4.606;2022-09-30T03:42:32;100195.28;;;5.91;53.67
68822;BME280;55834;50.870;4.606;2022-09-30T03:45:07;100198.66;;;5.98;53.73
68822;BME280;55834;50.870;4.606;2022-09-30T03:47:40;100200.38;;;5.99;53.64
68822;BME280;55834;50.870;4.606;2022-09-30T03:50:09;100200.38;;;6.00;53.46
68822;BME280;55834;50.870;4.606;2022-09-30T03:52:36;100195.13;;;6.00;52.96
68822;BME280;55834;50.870;4.606;2022-09-30T03:55:04;100204.94;;;5.89;52.27
68822;BME280;55834;50.870;4.606;2022-09-30T03:57:32;100219.72;;;5.92;53.48
68822;BME280;55834;50.870;4.606;2022-09-30T03:59:58;100219.69;;;5.95;53.75
68822;BME280;55834;50.870;4.606;2022-09-30T04:02:24;100217.16;;;5.88;54.72
68822;BME280;55834;50.870;4.606;2022-09-30T04:04:49;100219.75;;;5.90;54.54
68822;BME280;55834;50.870;4.606;2022-09-30T04:07:15;100212.69;;;5.95;54.51
68822;BME280;55834;50.870;4.606;2022-09-30T04:09:40;100223.16;;;5.97;54.69
68822;BME280;55834;50.870;4.606;2022-09-30T04:12:06;100225.75;;;5.97;54.04
68822;BME280;55834;50.870;4.606;2022-09-30T04:14:32;100227.59;;;5.90;53.74
68822;BME280;55834;50.870;4.606;2022-09-30T04:16:59;100231.13;;;5.87;54.29
68822;BME280;55834;50.870;4.606;2022-09-30T04:19:24;100237.41;;;5.79;53.93
68822;BME280;55834;50.870;4.606;2022-09-30T04:21:51;100241.03;;;5.70;54.18
68822;BME280;55834;50.870;4.606;2022-09-30T04:24:17;100246.22;;;5.73;54.44
68822;BME280;55834;50.870;4.606;2022-09-30T04:26:42;100251.38;;;5.79;54.65
68822;BME280;55834;50.870;4.606;2022-09-30T04:29:08;100254.00;;;5.79;54.05
68822;BME280;55834;50.870;4.606;2022-09-30T04:31:33;100259.25;;;5.79;54.35
68822;BME280;55834;50.870;4.606;2022-09-30T04:33:58;100253.97;;;5.82;54.25
68822;BME280;55834;50.870;4.606;2022-09-30T04:36:24;100254.34;;;5.58;53.66
68822;BME280;55834;50.870;4.606;2022-09-30T04:38:49;100256.44;;;5.36;54.87
68822;BME280;55834;50.870;4.606;2022-09-30T04:41:15;100256.19;;;5.50;55.91
68822;BME280;55834;50.870;4.606;2022-09-30T04:43:42;100255.13;;;5.61;55.18
68822;BME280;55834;50.870;4.606;2022-09-30T04:46:14;100253.31;;;5.66;54.61
68822;BME280;55834;50.870;4.606;2022-09-30T04:48:40;100252.41;;;5.69;54.89
68822;BME280;55834;50.870;4.606;2022-09-30T04:51:16;100257.59;;;5.72;54.29
68822;BME280;55834;50.870;4.606;2022-09-30T04:53:42;100254.03;;;5.76;54.35
68822;BME280;55834;50.870;4.606;2022-09-30T04:56:09;100263.09;;;5.55;53.36
68822;BME280;55834;50.870;4.606;2022-09-30T04:58:35;100267.63;;;5.46;54.25
68822;BME280;55834;50.870;4.606;2022-09-30T05:01:05;100268.38;;;5.52;54.57
68822;BME280;55834;50.870;4.606;2022-09-30T05:03:31;100278.16;;;5.41;54.85
68822;BME280;55834;50.870;4.606;2022-09-30T05:05:57;100266.66;;;5.51;54.92
68822;BME280;55834;50.870;4.606;2022-09-30T05:08:23;100263.09;;;5.55;55.24
68822;BME280;55834;50.870;4.606;2022-09-30T05:10:53;100277.09;;;5.53;54.15
68822;BME280;55834;50.870;4.606;2022-09-30T05:13:19;100273.94;;;5.31;55.27
68822;BME280;55834;50.870;4.606;2022-09-30T05:15:47;100281.75;;;5.32;55.82
68822;BME280;55834;50.870;4.606;2022-09-30T05:18:13;100278.16;;;5.41;55.74
68822;BME280;55834;50.870;4.606;2022-09-30T05:20:38;100282.41;;;5.48;54.88
68822;BME280;55834;50.870;4.606;2022-09-30T05:23:03;100291.94;;;5.54;54.98
68822;BME280;55834;50.870;4.606;2022-09-30T05:25:30;100294.66;;;5.46;54.30
68822;BME280;55834;50.870;4.606;2022-09-30T05:27:55;100293.00;;;5.40;54.08
68822;BME280;55834;50.870;4.606;2022-09-30T05:30:21;100299.25;;;5.30;53.76
68822;BME280;55834;50.870;4.606;2022-09-30T05:32:46;100299.53;;;5.10;54.28
68822;BME280;55834;50.870;4.606;2022-09-30T05:35:11;100310.75;;;5.17;55.51
68822;BME280;55834;50.870;4.606;2022-09-30T05:37:37;100306.25;;;5.28;54.64
68822;BME280;55834;50.870;4.606;2022-09-30T05:40:03;100318.50;;;5.28;55.76
68822;BME280;55834;50.870;4.606;2022-09-30T05:42:30;100321.47;;;4.95;55.25
68822;BME280;55834;50.870;4.606;2022-09-30T05:44:56;100321.59;;;4.83;57.73
68822;BME280;55834;50.870;4.606;2022-09-30T05:47:21;100321.34;;;5.08;58.05
68822;BME280;55834;50.870;4.606;2022-09-30T05:49:48;100320.25;;;5.24;56.47
68822;BME280;55834;50.870;4.606;2022-09-30T05:52:13;100327.19;;;5.27;55.05
68822;BME280;55834;50.870;4.606;2022-09-30T05:54:39;100323.81;;;5.18;54.48
68822;BME280;55834;50.870;4.606;2022-09-30T05:57:04;100331.56;;;5.28;55.78
68822;BME280;55834;50.870;4.606;2022-09-30T05:59:32;100330.88;;;5.13;55.15
68822;BME280;55834;50.870;4.606;2022-09-30T06:01:57;100332.47;;;5.25;56.42
68822;BME280;55834;50.870;4.606;2022-09-30T06:04:22;100337.59;;;5.36;55.68
68822;BME280;55834;50.870;4.606;2022-09-30T06:06:48;100341.00;;;5.39;55.35
68822;BME280;55834;50.870;4.606;2022-09-30T06:09:13;100336.69;;;5.35;54.88
68822;BME280;55834;50.870;4.606;2022-09-30T06:11:39;100336.75;;;5.31;55.90
68822;BME280;55834;50.870;4.606;2022-09-30T06:14:06;100347.06;;;5.41;56.13
68822;BME280;55834;50.870;4.606;2022-09-30T06:16:32;100343.56;;;5.44;55.78
68822;BME280;55834;50.870;4.606;2022-09-30T06:18:57;100343.72;;;5.33;55.88
68822;BME280;55834;50.870;4.606;2022-09-30T06:21:23;100354.94;;;5.41;56.59
68822;BME280;55834;50.870;4.606;2022-09-30T06:23:48;100346.38;;;5.29;56.04
68822;BME280;55834;50.870;4.606;2022-09-30T06:26:14;100360.28;;;5.32;57.32
68822;BME280;55834;50.870;4.606;2022-09-30T06:28:40;100358.41;;;5.43;57.85
68822;BME280;55834;50.870;4.606;2022-09-30T06:31:06;100368.66;;;5.60;58.08
68822;BME280;55834;50.870;4.606;2022-09-30T06:33:32;100358.00;;;5.73;57.10
68822;BME280;55834;50.870;4.606;2022-09-30T06:35:58;100377.13;;;5.79;56.46
68822;BME280;55834;50.870;4.606;2022-09-30T06:38:28;100372.72;;;5.83;56.30
68822;BME280;55834;50.870;4.606;2022-09-30T06:40:53;100380.44;;;5.91;56.42
68822;BME280;55834;50.870;4.606;2022-09-30T06:43:20;100370.75;;;5.97;56.28
68822;BME280;55834;50.870;4.606;2022-09-30T06:45:47;100371.44;;;6.08;56.40
68822;BME280;55834;50.870;4.606;2022-09-30T06:48:16;100376.50;;;6.19;56.53
68822;BME280;55834;50.870;4.606;2022-09-30T06:50:42;100369.31;;;6.30;56.74
68822;BME280;55834;50.870;4.606;2022-09-30T06:53:09;100374.34;;;6.46;57.27
68822;BME280;55834;50.870;4.606;2022-09-30T06:55:36;100374.06;;;6.60;57.24
68822;BME280;55834;50.870;4.606;2022-09-30T06:58:12;100372.88;;;6.81;57.97
68822;BME280;55834;50.870;4.606;2022-09-30T07:00:37;100376.84;;;7.00;57.81
68822;BME280;55834;50.870;4.606;2022-09-30T07:03:04;100371.13;;;7.24;58.13
68822;BME280;55834;50.870;4.606;2022-09-30T07:05:36;100368.03;;;7.46;58.16
68822;BME280;55834;50.870;4.606;2022-09-30T07:08:01;100368.47;;;7.66;57.41
68822;BME280;55834;50.870;4.606;2022-09-30T07:10:27;100371.63;;;7.82;57.80
68822;BME280;55834;50.870;4.606;2022-09-30T07:12:52;100369.47;;;8.00;57.26
68822;BME280;55834;50.870;4.606;2022-09-30T07:15:19;100371.75;;;8.17;57.60
68822;BME280;55834;50.870;4.606;2022-09-30T07:17:54;100360.84;;;8.32;57.29
68822;BME280;55834;50.870;4.606;2022-09-30T07:20:26;100367.44;;;8.48;57.23
68822;BME280;55834;50.870;4.606;2022-09-30T07:22:51;100366.22;;;8.62;57.51
68822;BME280;55834;50.870;4.606;2022-09-30T07:25:17;100373.78;;;8.74;57.80
68822;BME280;55834;50.870;4.606;2022-09-30T07:27:43;100375.13;;;8.89;57.63
68822;BME280;55834;50.870;4.606;2022-09-30T07:30:09;100381.69;;;9.07;57.29
68822;BME280;55834;50.870;4.606;2022-09-30T07:32:35;100365.53;;;9.19;57.53
68822;BME280;55834;50.870;4.606;2022-09-30T07:35:00;100369.50;;;9.35;57.28
68822;BME280;55834;50.870;4.606;2022-09-30T07:37:25;100365.53;;;9.50;57.41
68822;BME280;55834;50.870;4.606;2022-09-30T07:39:51;100368.56;;;9.66;57.47
68822;BME280;55834;50.870;4.606;2022-09-30T07:42:17;100368.25;;;9.77;56.65
68822;BME280;55834;50.870;4.606;2022-09-30T07:44:47;100372.31;;;9.87;57.53
68822;BME280;55834;50.870;4.606;2022-09-30T07:47:13;100368.34;;;10.02;56.91
68822;BME280;55834;50.870;4.606;2022-09-30T07:49:40;100368.84;;;10.13;57.17
68822;BME280;55834;50.870;4.606;2022-09-30T07:52:06;100366.56;;;10.29;56.63
68822;BME280;55834;50.870;4.606;2022-09-30T07:54:32;100360.97;;;10.38;56.27
68822;BME280;55834;50.870;4.606;2022-09-30T07:56:59;100362.69;;;10.39;57.03
68822;BME280;55834;50.870;4.606;2022-09-30T07:59:27;100365.19;;;10.44;57.08
68822;BME280;55834;50.870;4.606;2022-09-30T08:01:53;100367.34;;;10.59;58.24
68822;BME280;55834;50.870;4.606;2022-09-30T08:04:19;100370.25;;;9.97;58.98
68822;BME280;55834;50.870;4.606;2022-09-30T08:06:51;100376.56;;;10.19;59.77
68822;BME280;55834;50.870;4.606;2022-09-30T08:09:19;100363.41;;;10.17;58.62
68822;BME280;55834;50.870;4.606;2022-09-30T08:11:45;100365.50;;;10.34;58.90
68822;BME280;55834;50.870;4.606;2022-09-30T08:14:16;100363.94;;;10.55;59.36
68822;BME280;55834;50.870;4.606;2022-09-30T08:16:42;100364.81;;;10.81;58.33
68822;BME280;55834;50.870;4.606;2022-09-30T08:19:19;100372.06;;;10.49;58.38
68822;BME280;55834;50.870;4.606;2022-09-30T08:21:45;100360.53;;;11.02;58.72
68822;BME280;55834;50.870;4.606;2022-09-30T08:24:11;100360.56;;;11.25;57.48
68822;BME280;55834;50.870;4.606;2022-09-30T08:26:37;100357.75;;;11.30;57.31
68822;BME280;55834;50.870;4.606;2022-09-30T08:29:03;100354.59;;;11.44;57.81
68822;BME280;55834;50.870;4.606;2022-09-30T08:31:28;100359.91;;;11.67;56.82
68822;BME280;55834;50.870;4.606;2022-09-30T08:33:53;100361.47;;;11.71;56.80
68822;BME280;55834;50.870;4.606;2022-09-30T08:36:23;100360.00;;;11.86;56.82
68822;BME280;55834;50.870;4.606;2022-09-30T08:38:49;100369.94;;;12.03;56.45
68822;BME280;55834;50.870;4.606;2022-09-30T08:41:33;100368.63;;;11.91;57.00
68822;BME280;55834;50.870;4.606;2022-09-30T08:52:31;100362.75;;;12.49;56.25
68822;BME280;55834;50.870;4.606;2022-09-30T08:54:58;100370.88;;;12.45;54.93
68822;BME280;55834;50.870;4.606;2022-09-30T08:57:36;100373.25;;;12.08;55.55
68822;BME280;55834;50.870;4.606;2022-09-30T09:00:05;100374.25;;;11.60;56.86
68822;BME280;55834;50.870;4.606;2022-09-30T09:02:55;100372.63;;;11.80;56.79
68822;BME280;55834;50.870;4.606;2022-09-30T09:08:25;100368.19;;;11.80;56.62
68822;BME280;55834;50.870;4.606;2022-09-30T09:13:49;100365.09;;;11.69;58.11
68822;BME280;55834;50.870;4.606;2022-09-30T09:16:20;100369.06;;;12.03;55.95
68822;BME280;55834;50.870;4.606;2022-09-30T09:19:13;100362.38;;;12.16;55.29
68822;BME280;55834;50.870;4.606;2022-09-30T09:21:50;100371.78;;;10.83;59.97
68822;BME280;55834;50.870;4.606;2022-09-30T09:24:36;100370.59;;;11.86;57.73
68822;BME280;55834;50.870;4.606;2022-09-30T09:30:12;100368.66;;;12.76;55.40
68822;BME280;55834;50.870;4.606;2022-09-30T09:32:37;100362.47;;;12.55;56.47
68822;BME280;55834;50.870;4.606;2022-09-30T09:38:14;100364.44;;;13.51;54.16
68822;BME280;55834;50.870;4.606;2022-09-30T09:46:43;100376.00;;;13.10;54.06
68822;BME280;55834;50.870;4.606;2022-09-30T09:51:56;100368.41;;;13.22;51.57
68822;BME280;55834;50.870;4.606;2022-09-30T09:54:25;100371.63;;;13.49;51.48
68822;BME280;55834;50.870;4.606;2022-09-30T09:56:52;100366.16;;;13.52;52.34
68822;BME280;55834;50.870;4.606;2022-09-30T09:59:19;100374.22;;;12.70;51.26
68822;BME280;55834;50.870;4.606;2022-09-30T10:01:46;100375.03;;;12.93;53.59
68822;BME280;55834;50.870;4.606;2022-09-30T10:04:22;100367.16;;;13.49;51.61
68822;BME280;55834;50.870;4.606;2022-09-30T10:09:33;100371.44;;;13.14;50.64
68822;BME280;55834;50.870;4.606;2022-09-30T10:14:37;100380.41;;;13.30;50.33
68822;BME280;55834;50.870;4.606;2022-09-30T10:17:18;100375.44;;;13.81;50.32
68822;BME280;55834;50.870;4.606;2022-09-30T10:19:49;100382.41;;;14.37;50.08
68822;BME280;55834;50.870;4.606;2022-09-30T10:24:42;100383.53;;;13.78;49.37
68822;BME280;55834;50.870;4.606;2022-09-30T10:27:30;100388.53;;;13.46;49.92
68822;BME280;55834;50.870;4.606;2022-09-30T10:29:56;100383.94;;;13.69;50.69
68822;BME280;55834;50.870;4.606;2022-09-30T10:32:22;100382.75;;;14.12;49.96
68822;BME280;55834;50.870;4.606;2022-09-30T10:35:02;100383.41;;;14.54;48.44
68822;BME280;55834;50.870;4.606;2022-09-30T10:37:28;100382.56;;;14.34;48.88
68822;BME280;55834;50.870;4.606;2022-09-30T10:40:00;100393.66;;;14.25;48.09
68822;BME280;55834;50.870;4.606;2022-09-30T10:42:33;100385.28;;;13.40;49.34
68822;BME280;55834;50.870;4.606;2022-09-30T10:45:03;100383.00;;;13.51;50.11
68822;BME280;55834;50.870;4.606;2022-09-30T10:47:31;100387.50;;;14.06;48.64
68822;BME280;55834;50.870;4.606;2022-09-30T10:50:00;100381.31;;;13.69;49.04
68822;BME280;55834;50.870;4.606;2022-09-30T10:52:35;100382.22;;;14.06;48.45
68822;BME280;55834;50.870;4.606;2022-09-30T10:55:14;100382.66;;;14.33;48.71
68822;BME280;55834;50.870;4.606;2022-09-30T10:57:51;100382.09;;;13.52;47.69
68822;BME280;55834;50.870;4.606;2022-09-30T11:00:20;100376.03;;;14.41;47.42
68822;BME280;55834;50.870;4.606;2022-09-30T11:03:15;100373.94;;;14.48;47.03
68822;BME280;55834;50.870;4.606;2022-09-30T11:05:44;100382.19;;;14.42;46.39
68822;BME280;55834;50.870;4.606;2022-09-30T11:08:19;100376.78;;;14.43;47.27
68822;BME280;55834;50.870;4.606;2022-09-30T11:13:49;100371.34;;;14.81;46.57
68822;BME280;55834;50.870;4.606;2022-09-30T11:16:36;100380.88;;;14.33;47.26
68822;BME280;55834;50.870;4.606;2022-09-30T11:24:42;100370.13;;;14.71;45.65
68822;BME280;55834;50.870;4.606;2022-09-30T11:30:09;100371.78;;;13.84;46.22
68822;BME280;55834;50.870;4.606;2022-09-30T11:35:23;100358.88;;;15.17;44.19
68822;BME280;55834;50.870;4.606;2022-09-30T11:40:37;100356.13;;;15.18;44.06
68822;BME280;55834;50.870;4.606;2022-09-30T11:43:19;100356.28;;;15.32;44.65
68822;BME280;55834;50.870;4.606;2022-09-30T11:48:33;100341.09;;;15.82;41.46
68822;BME280;55834;50.870;4.606;2022-09-30T11:54:16;100345.81;;;15.45;41.45
68822;BME280;55834;50.870;4.606;2022-09-30T12:02:02;100350.34;;;15.10;44.18
68822;BME280;55834;50.870;4.606;2022-09-30T12:04:31;100345.66;;;15.64;42.19
68822;BME280;55834;50.870;4.606;2022-09-30T12:07:08;100348.66;;;15.25;43.29
68822;BME280;55834;50.870;4.606;2022-09-30T12:09:45;100338.56;;;16.11;41.30
68822;BME280;55834;50.870;4.606;2022-09-30T12:12:14;100345.16;;;15.89;42.24
68822;BME280;55834;50.870;4.606;2022-09-30T12:19:52;100341.56;;;15.74;41.38
68822;BME280;55834;50.870;4.606;2022-09-30T12:22:25;100335.09;;;15.78;41.63
68822;BME280;55834;50.870;4.606;2022-09-30T12:24:52;100326.44;;;15.43;40.79
68822;BME280;55834;50.870;4.606;2022-09-30T12:27:25;100320.16;;;15.76;40.44
68822;BME280;55834;50.870;4.606;2022-09-30T12:29:58;100338.41;;;14.68;41.24
68822;BME280;55834;50.870;4.606;2022-09-30T12:36:06;100334.75;;;15.85;41.05
68822;BME280;55834;50.870;4.606;2022-09-30T12:49:35;100320.00;;;14.81;43.53
68822;BME280;55834;50.870;4.606;2022-09-30T12:52:06;100320.19;;;15.11;43.06
68822;BME280;55834;50.870;4.606;2022-09-30T12:54:43;100322.34;;;15.20;43.15
68822;BME280;55834;50.870;4.606;2022-09-30T12:57:19;100320.28;;;14.92;42.78
68822;BME280;55834;50.870;4.606;2022-09-30T12:59:57;100317.03;;;15.20;43.59
68822;BME280;55834;50.870;4.606;2022-09-30T13:02:35;100315.97;;;15.40;42.76
68822;BME280;55834;50.870;4.606;2022-09-30T13:10:55;100309.38;;;14.81;43.35
68822;BME280;55834;50.870;4.606;2022-09-30T13:13:24;100301.72;;;15.41;43.56
68822;BME280;55834;50.870;4.606;2022-09-30T13:15:51;100298.19;;;14.92;43.98
68822;BME280;55834;50.870;4.606;2022-09-30T13:28:46;100279.66;;;15.39;43.49
68822;BME280;55834;50.870;4.606;2022-09-30T13:31:17;100270.63;;;15.26;42.96
68822;BME280;55834;50.870;4.606;2022-09-30T13:36:18;100262.09;;;15.03;42.10
68822;BME280;55834;50.870;4.606;2022-09-30T13:41:57;100260.56;;;15.15;42.60
68822;BME280;55834;50.870;4.606;2022-09-30T13:47:16;100253.09;;;14.57;43.48
68822;BME280;55834;50.870;4.606;2022-09-30T13:50:11;100252.59;;;14.99;42.69
68822;BME280;55834;50.870;4.606;2022-09-30T13:52:38;100253.16;;;15.04;43.77
68822;BME280;55834;50.870;4.606;2022-09-30T13:55:47;100253.38;;;15.65;43.44
68822;BME280;55834;50.870;4.606;2022-09-30T14:12:18;100241.06;;;14.83;43.66
68822;BME280;55834;50.870;4.606;2022-09-30T14:18:21;100237.38;;;14.85;42.71
68822;BME280;55834;50.870;4.606;2022-09-30T14:20:29;100228.44;;;15.36;42.78
68822;BME280;55834;50.870;4.606;2022-09-30T14:22:58;100235.34;;;15.22;42.97
68822;BME280;55834;50.870;4.606;2022-09-30T14:25:24;100233.25;;;14.80;42.83
68822;BME280;55834;50.870;4.606;2022-09-30T14:28:12;100229.16;;;15.22;43.25
68822;BME280;55834;50.870;4.606;2022-09-30T14:30:41;100233.19;;;15.13;43.06
68822;BME280;55834;50.870;4.606;2022-09-30T14:33:27;100223.88;;;15.38;41.76
68822;BME280;55834;50.870;4.606;2022-09-30T14:35:59;100229.91;;;14.76;42.39
68822;BME280;55834;50.870;4.606;2022-09-30T14:38:27;100219.38;;;15.06;42.08
68822;BME280;55834;50.870;4.606;2022-09-30T14:40:55;100217.16;;;14.83;42.97
68822;BME280;55834;50.870;4.606;2022-09-30T14:43:26;100218.56;;;14.39;43.59
68822;BME280;55834;50.870;4.606;2022-09-30T14:46:02;100214.28;;;13.85;45.43
68822;BME280;55834;50.870;4.606;2022-09-30T14:48:32;100211.38;;;14.41;44.64
68822;BME280;55834;50.870;4.606;2022-09-30T14:51:04;100207.41;;;14.50;43.20
68822;BME280;55834;50.870;4.606;2022-09-30T14:53:33;100209.44;;;14.94;41.77
68822;BME280;55834;50.870;4.606;2022-09-30T14:56:01;100209.78;;;15.04;41.26
68822;BME280;55834;50.870;4.606;2022-09-30T14:58:29;100215.22;;;14.18;42.62
68822;BME280;55834;50.870;4.606;2022-09-30T15:00:59;100209.50;;;13.91;43.60
68822;BME280;55834;50.870;4.606;2022-09-30T15:03:26;100204.03;;;14.47;42.81
68822;BME280;55834;50.870;4.606;2022-09-30T15:05:52;100206.81;;;14.61;42.93
68822;BME280;55834;50.870;4.606;2022-09-30T15:08:18;100208.84;;;15.37;41.05
68822;BME280;55834;50.870;4.606;2022-09-30T15:10:46;100205.84;;;14.95;42.92
68822;BME280;55834;50.870;4.606;2022-09-30T15:13:12;100210.53;;;14.74;42.16
68822;BME280;55834;50.870;4.606;2022-09-30T15:15:39;100221.44;;;14.85;43.43
68822;BME280;55834;50.870;4.606;2022-09-30T15:18:21;100231.19;;;14.34;43.01
68822;BME280;55834;50.870;4.606;2022-09-30T15:20:47;100222.22;;;14.37;43.51
68822;BME280;55834;50.870;4.606;2022-09-30T15:23:18;100224.25;;;14.49;43.58
68822;BME280;55834;50.870;4.606;2022-09-30T15:25:45;100228.50;;;14.18;43.85
68822;BME280;55834;50.870;4.606;2022-09-30T15:28:11;100211.25;;;15.09;42.29
68822;BME280;55834;50.870;4.606;2022-09-30T15:30:37;100221.72;;;15.12;43.75
68822;BME280;55834;50.870;4.606;2022-09-30T15:33:03;100224.63;;;15.24;43.31
68822;BME280;55834;50.870;4.606;2022-09-30T15:35:30;100228.00;;;14.62;43.73
68822;BME280;55834;50.870;4.606;2022-09-30T15:38:09;100223.13;;;14.71;43.10
68822;BME280;55834;50.870;4.606;2022-09-30T15:40:44;100232.69;;;15.22;41.74
68822;BME280;55834;50.870;4.606;2022-09-30T15:43:32;100237.50;;;15.00;42.95
68822;BME280;55834;50.870;4.606;2022-09-30T15:46:24;100230.88;;;15.07;41.92
68822;BME280;55834;50.870;4.606;2022-09-30T15:48:57;100234.25;;;14.09;43.34
68822;BME280;55834;50.870;4.606;2022-09-30T15:51:37;100232.50;;;14.10;43.05
68822;BME280;55834;50.870;4.606;2022-09-30T15:54:34;100232.44;;;14.62;42.49